Time;durP1;ratioP1;P1;durP2;ratioP2;P2;SDS_P1;SDS_P2;PMS_P1;PMS_P2;Temp;Humidity;BMP_temperature;BMP_pressure;BME280_temperature;BME280_humidity;BME280_pressure;Samples;Min_cycle;Max_cycle;Signal;HPM_P1;HPM_P2
2024/04/02 00:00:34;;;;;;;1.85;1.60;;;;;;;7.12;100.00;97103.59;6107768;19;20007;-71
2024/04/02 00:02:34;;;;;;;2.83;1.80;;;;;;;7.15;100.00;97114.59;6106461;19;20033;-71
2024/04/02 00:04:35;;;;;;;1.90;1.70;;;;;;;7.18;100.00;97115.75;6110391;19;20013;-71
2024/04/02 00:06:35;;;;;;;17.98;1.98;;;;;;;7.18;100.00;97110.25;6112068;19;20030;-71
2024/04/02 00:08:36;;;;;;;2.22;1.70;;;;;;;7.16;100.00;97110.66;6111238;19;20110;-71
2024/04/02 00:10:38;;;;;;;2.72;1.50;;;;;;;7.18;100.00;97113.78;6113317;19;20618;-70
2024/04/02 00:12:38;;;;;;;1.63;1.48;;;;;;;7.24;100.00;97119.72;6113343;19;20026;-70
2024/04/02 00:14:38;;;;;;;2.00;1.55;;;;;;;7.24;100.00;97116.97;6113206;19;20024;-70
2024/04/02 00:16:39;;;;;;;1.80;1.58;;;;;;;7.28;100.00;97126.00;6112128;19;20036;-70
2024/04/02 00:18:39;;;;;;;1.80;1.50;;;;;;;7.19;100.00;97115.38;6112160;19;20007;-70
2024/04/02 00:20:39;;;;;;;2.45;1.40;;;;;;;7.22;100.00;97128.34;6113722;19;20046;-70
2024/04/02 00:22:44;;;;;;;2.85;1.40;;;;;;;7.24;100.00;97119.72;6112311;19;20011;-70
2024/04/02 00:24:44;;;;;;;3.55;1.92;;;;;;;7.28;100.00;97120.50;6111983;19;20409;-70
2024/04/02 00:26:44;;;;;;;1.88;1.70;;;;;;;7.27;100.00;97127.19;6111478;19;20007;-70
2024/04/02 00:28:48;;;;;;;3.60;1.70;;;;;;;7.23;100.00;97123.66;6112309;19;20038;-70
2024/04/02 00:30:48;;;;;;;2.50;1.52;;;;;;;7.17;100.00;97125.97;6111471;19;20014;-70
2024/04/02 00:32:48;;;;;;;3.97;1.65;;;;;;;7.15;100.00;97133.06;6112164;19;20010;-70
2024/04/02 00:34:49;;;;;;;2.35;1.70;;;;;;;7.15;100.00;97127.56;6111140;19;20003;-71
2024/04/02 00:36:50;;;;;;;2.47;1.40;;;;;;;7.15;100.00;97127.56;6110071;19;20956;-71
2024/04/02 00:38:50;;;;;;;1.75;1.33;;;;;;;7.20;100.00;97130.72;6110822;19;19999;-71
2024/04/02 00:40:52;;;;;;;3.58;1.60;;;;;;;7.24;100.00;97134.25;6112558;19;20727;-71
2024/04/02 00:42:52;;;;;;;3.17;1.52;;;;;;;7.31;100.00;97133.50;6110889;19;20005;-71
2024/04/02 00:44:52;;;;;;;2.78;1.90;;;;;;;7.30;100.00;97134.66;6111060;19;20002;-71
2024/04/02 00:46:53;;;;;;;2.25;1.33;;;;;;;7.36;100.00;97143.31;6111213;19;20359;-71
2024/04/02 00:48:54;;;;;;;2.55;1.73;;;;;;;7.38;100.00;97146.50;6110496;19;20339;-71
2024/04/02 00:50:54;;;;;;;2.53;1.90;;;;;;;7.30;100.00;97146.47;6110358;19;20007;-71
2024/04/02 00:52:55;;;;;;;2.47;1.50;;;;;;;7.28;100.00;97161.75;6111267;19;20002;-71
2024/04/02 00:54:55;;;;;;;2.22;1.48;;;;;;;7.29;100.00;97155.91;6111476;19;20013;-71
2024/04/02 00:56:56;;;;;;;3.72;1.88;;;;;;;7.30;100.00;97156.69;6110676;19;20007;-71
2024/04/02 00:58:56;;;;;;;3.72;1.98;;;;;;;7.32;100.00;97160.63;6109432;19;20002;-71
2024/04/02 01:00:57;;;;;;;2.10;1.50;;;;;;;7.25;100.00;97160.59;6111688;19;20588;-71
2024/04/02 01:02:58;;;;;;;1.60;1.45;;;;;;;7.30;100.00;97160.22;6111394;19;20030;-71
2024/04/02 01:04:59;;;;;;;2.30;2.05;;;;;;;7.36;100.00;97155.09;6111412;19;20002;-71
2024/04/02 01:07:01;;;;;;;3.03;1.80;;;;;;;7.47;100.00;97163.41;6109846;19;20010;-71
2024/04/02 01:09:01;;;;;;;4.15;1.50;;;;;;;7.43;100.00;97173.59;6110173;19;20464;-71
2024/04/02 01:11:03;;;;;;;2.65;1.88;;;;;;;7.39;100.00;97176.34;6109540;19;19999;-71
2024/04/02 01:13:04;;;;;;;1.52;1.42;;;;;;;7.42;100.00;97178.31;6110311;19;20026;-71
2024/04/02 01:15:04;;;;;;;3.50;1.40;;;;;;;7.45;100.00;97185.03;6111679;19;20326;-71
2024/04/02 01:17:05;;;;;;;1.90;1.40;;;;;;;7.45;100.00;97182.28;6108003;19;21650;-71
2024/04/02 01:19:05;;;;;;;8.23;1.55;;;;;;;7.44;100.00;97186.97;6109845;19;20007;-71
2024/04/02 01:21:05;;;;;;;1.70;1.25;;;;;;;7.35;100.00;97177.50;6109825;19;20002;-71
2024/04/02 01:23:06;;;;;;;2.85;1.40;;;;;;;7.35;100.00;97172.78;6110956;19;20337;-71
2024/04/02 01:25:08;;;;;;;1.92;1.65;;;;;;;7.36;100.00;97182.63;6110212;19;20006;-71
2024/04/02 01:27:09;;;;;;;2.10;1.60;;;;;;;7.45;100.00;97179.53;6109233;19;20009;-71
2024/04/02 01:29:09;;;;;;;1.80;1.60;;;;;;;7.39;100.00;97189.34;6109954;19;20550;-71
2024/04/02 01:31:09;;;;;;;1.30;1.20;;;;;;;7.31;100.00;97183.00;6110533;19;20016;-71
2024/04/02 01:33:09;;;;;;;3.45;1.60;;;;;;;7.30;100.00;97189.69;6110000;19;20011;-71
2024/04/02 01:35:13;;;;;;;4.85;1.70;;;;;;;7.21;100.00;97176.31;6110638;19;20046;-71
2024/04/02 01:37:14;;;;;;;2.10;1.48;;;;;;;7.13;100.00;97182.94;6109863;19;20033;-71
2024/04/02 01:39:14;;;;;;;1.58;1.48;;;;;;;7.10;100.00;97185.66;6108898;19;20010;-71
2024/04/02 01:41:15;;;;;;;3.60;1.58;;;;;;;7.06;100.00;97182.91;6107875;19;20011;-71
2024/04/02 01:43:15;;;;;;;1.80;1.50;;;;;;;7.07;100.00;97186.44;6110404;19;20761;-71
2024/04/02 01:45:15;;;;;;;10.73;2.53;;;;;;;7.13;100.00;97188.44;6108821;19;20020;-71
2024/04/02 01:47:16;;;;;;;1.48;1.30;;;;;;;7.11;100.00;97193.53;6108158;19;20010;-71
2024/04/02 01:49:16;;;;;;;1.80;1.42;;;;;;;7.20;100.00;97198.69;6108581;19;20013;-71
2024/04/02 01:51:16;;;;;;;1.67;1.48;;;;;;;7.22;100.00;97199.88;6109547;19;20010;-71
2024/04/02 01:53:17;;;;;;;3.25;1.80;;;;;;;7.19;100.00;97195.13;6108944;19;20570;-71
2024/04/02 01:55:17;;;;;;;2.25;1.55;;;;;;;7.21;100.00;97203.81;6108986;19;20017;-71
2024/04/02 01:57:17;;;;;;;1.45;1.35;;;;;;;7.20;100.00;97201.44;6108295;19;20011;-71
2024/04/02 01:59:18;;;;;;;3.85;1.52;;;;;;;7.14;100.00;97198.28;6108727;19;20066;-71
2024/04/02 02:01:18;;;;;;;2.03;1.27;;;;;;;7.14;100.00;97206.53;6108364;19;20023;-71
2024/04/02 02:03:18;;;;;;;3.05;1.35;;;;;;;7.10;100.00;97205.72;6110021;19;20081;-70
2024/04/02 02:05:18;;;;;;;2.75;1.13;;;;;;;7.02;100.00;97206.84;6108395;19;19998;-70
2024/04/02 02:07:19;;;;;;;1.42;1.20;;;;;;;7.11;100.00;97215.53;6108225;19;20011;-70
2024/04/02 02:09:19;;;;;;;1.90;1.75;;;;;;;7.08;100.00;97210.03;6107568;19;20457;-70
2024/04/02 02:11:19;;;;;;;1.58;1.45;;;;;;;7.03;100.00;97216.66;6109321;19;20030;-70
2024/04/02 02:13:20;;;;;;;1.92;1.42;;;;;;;7.12;100.00;97216.34;6108202;19;20050;-70
2024/04/02 02:15:20;;;;;;;1.98;1.60;;;;;;;7.09;100.00;97206.09;6102659;19;20478;-70
2024/04/02 02:17:20;;;;;;;4.80;2.70;;;;;;;7.04;100.00;97212.78;6102493;19;20077;-71
2024/04/02 02:19:20;;;;;;;2.10;1.50;;;;;;;7.00;100.00;97218.25;6107632;19;20027;-71
2024/04/02 02:21:21;;;;;;;2.28;1.45;;;;;;;6.93;100.00;97220.94;6107756;19;20325;-71
2024/04/02 02:23:23;;;;;;;2.22;1.35;;;;;;;6.94;100.00;97216.22;6107867;19;20514;-71
2024/04/02 02:25:23;;;;;;;2.53;1.40;;;;;;;6.91;100.00;97217.00;6107428;19;20337;-71
2024/04/02 02:27:23;;;;;;;2.72;1.42;;;;;;;6.92;100.00;97224.09;6105959;19;20010;-71
2024/04/02 02:29:25;;;;;;;2.45;1.50;;;;;;;6.99;100.00;97224.91;6104963;19;20003;-70
2024/04/02 02:31:25;;;;;;;1.57;1.40;;;;;;;6.96;100.00;97228.44;6108676;19;20344;-71
2024/04/02 02:33:26;;;;;;;2.53;1.42;;;;;;;6.95;100.00;97231.56;6107388;19;20357;-71
2024/04/02 02:35:26;;;;;;;4.03;1.40;;;;;;;6.94;100.00;97230.78;6106832;19;20013;-71
2024/04/02 02:37:26;;;;;;;4.13;1.60;;;;;;;6.94;100.00;97232.72;6107106;19;20017;-71
2024/04/02 02:39:27;;;;;;;2.50;1.35;;;;;;;6.88;100.00;97229.56;6106271;19;20037;-71
2024/04/02 02:41:27;;;;;;;3.63;1.35;;;;;;;6.81;100.00;97224.03;6107748;19;20313;-71
2024/04/02 02:43:27;;;;;;;1.48;1.30;;;;;;;6.93;100.00;97226.44;6107552;19;20026;-71
2024/04/02 02:45:28;;;;;;;1.65;1.40;;;;;;;6.90;100.00;97232.72;6107414;19;20021;-70
2024/04/02 02:47:28;;;;;;;3.00;1.52;;;;;;;7.08;100.00;97240.28;6106741;19;20006;-70
2024/04/02 02:49:28;;;;;;;2.15;1.50;;;;;;;7.08;100.00;97241.06;6108476;19;20365;-70
2024/04/02 02:51:29;;;;;;;3.85;1.90;;;;;;;7.01;100.00;97236.31;6107298;19;20013;-70
2024/04/02 02:53:29;;;;;;;1.33;1.23;;;;;;;6.97;100.00;97240.22;6107449;19;20010;-70
2024/04/02 02:55:29;;;;;;;3.08;1.33;;;;;;;6.96;100.00;97246.91;6106955;19;20014;-70
2024/04/02 02:57:30;;;;;;;1.40;1.30;;;;;;;7.04;100.00;97254.03;6105543;19;20002;-70
2024/04/02 02:59:30;;;;;;;4.22;1.63;;;;;;;7.01;100.00;97243.78;6107233;19;20492;-70
2024/04/02 03:01:30;;;;;;;2.08;1.35;;;;;;;7.06;100.00;97256.38;6107945;19;20118;-71
2024/04/02 03:03:31;;;;;;;2.15;1.30;;;;;;;7.00;100.00;97254.00;6106804;19;20021;-71
2024/04/02 03:05:31;;;;;;;1.40;1.30;;;;;;;6.96;100.00;97263.41;6106418;19;20467;-71
2024/04/02 03:07:31;;;;;;;3.95;1.60;;;;;;;6.90;100.00;97257.47;6103934;19;20006;-71
2024/04/02 03:09:35;;;;;;;4.90;1.52;;;;;;;6.94;100.00;97266.50;6108160;19;20010;-71
2024/04/02 03:11:36;;;;;;;1.67;1.48;;;;;;;6.97;100.00;97262.22;6107226;19;20503;-71
2024/04/02 03:13:36;;;;;;;2.78;1.70;;;;;;;7.01;100.00;97268.53;6106902;19;20023;-71
2024/04/02 03:15:39;;;;;;;2.33;1.27;;;;;;;7.02;100.00;97270.09;6105396;19;20013;-71
2024/04/02 03:17:40;;;;;;;1.90;1.67;;;;;;;7.06;100.00;97267.38;6097439;19;20029;-71
2024/04/02 03:19:41;;;;;;;2.95;1.88;;;;;;;7.11;100.00;97262.28;6098391;19;20450;-71
2024/04/02 03:21:41;;;;;;;2.40;1.60;;;;;;;7.10;100.00;97270.94;6098265;19;20010;-71
2024/04/02 03:23:42;;;;;;;2.03;1.60;;;;;;;7.19;100.00;97276.88;6097761;19;20002;-71
2024/04/02 03:25:51;;;;;;;1.77;1.50;;;;;;;7.23;100.00;97283.19;6099238;19;20375;-71
2024/04/02 03:27:51;;;;;;;1.80;1.40;;;;;;;7.22;100.00;97274.16;6096931;19;20023;-71
2024/04/02 03:29:52;;;;;;;4.13;1.55;;;;;;;7.24;100.00;97282.81;6098093;19;20007;-71
2024/04/02 03:31:52;;;;;;;3.83;1.60;;;;;;;7.25;100.00;97276.13;6098047;19;20006;-70
2024/04/02 03:33:52;;;;;;;4.07;1.40;;;;;;;7.30;100.00;97291.50;6098945;19;20007;-70
2024/04/02 03:35:53;;;;;;;3.97;1.38;;;;;;;7.30;100.00;97288.75;6097260;19;20002;-71
2024/04/02 03:37:53;;;;;;;3.90;1.55;;;;;;;7.31;100.00;97290.31;6096476;19;20455;-71
2024/04/02 03:39:53;;;;;;;2.92;1.80;;;;;;;7.30;100.00;97286.78;6100391;19;20030;-71
2024/04/02 03:41:54;;;;;;;5.07;2.05;;;;;;;7.36;100.00;97287.19;6104519;19;20017;-71
2024/04/02 03:43:54;;;;;;;1.92;1.58;;;;;;;7.32;100.00;97294.66;6103057;19;20014;-71
2024/04/02 03:45:54;;;;;;;2.28;1.40;;;;;;;7.30;100.00;97294.25;6103960;19;20006;-71
2024/04/02 03:47:55;;;;;;;1.60;1.50;;;;;;;7.31;100.00;97291.09;6102396;19;20007;-71
2024/04/02 03:49:55;;;;;;;3.47;1.40;;;;;;;7.29;100.00;97301.72;6103255;19;20009;-71
2024/04/02 03:51:55;;;;;;;2.70;1.55;;;;;;;7.27;100.00;97303.25;6103006;19;20007;-71
2024/04/02 03:53:56;;;;;;;2.67;1.60;;;;;;;7.24;100.00;97296.56;6104162;19;20003;-71
2024/04/02 03:56:05;;;;;;;2.65;1.58;;;;;;;7.26;100.00;97298.94;6103730;19;20006;-71
2024/04/02 03:58:05;;;;;;;3.17;1.65;;;;;;;7.24;100.00;97301.28;6102078;19;20006;-71
2024/04/02 04:00:06;;;;;;;2.65;1.40;;;;;;;7.19;100.00;97301.63;6103885;19;20113;-71
2024/04/02 04:02:07;;;;;;;2.00;1.80;;;;;;;7.14;100.00;97305.56;6103451;19;20017;-71
2024/04/02 04:04:07;;;;;;;2.17;1.45;;;;;;;7.14;100.00;97302.81;6103555;19;20870;-71
2024/04/02 04:06:07;;;;;;;1.27;1.17;;;;;;;7.10;100.00;97318.47;6102845;19;20007;-71
2024/04/02 04:08:08;;;;;;;1.83;1.50;;;;;;;7.04;100.00;97317.28;6101444;19;20491;-71
2024/04/02 04:10:08;;;;;;;2.50;1.30;;;;;;;6.95;100.00;97314.88;6103435;19;20502;-71
2024/04/02 04:12:08;;;;;;;2.70;1.48;;;;;;;6.92;100.00;97318.34;6102585;19;20552;-71
2024/04/02 04:14:08;;;;;;;8.50;1.92;;;;;;;6.96;100.00;97324.69;6103807;19;20023;-71
2024/04/02 04:16:09;;;;;;;4.38;1.63;;;;;;;6.98;100.00;97332.56;6103810;19;20587;-71
2024/04/02 04:18:09;;;;;;;3.15;1.50;;;;;;;6.94;100.00;97334.47;6109842;19;20009;-71
2024/04/02 04:20:10;;;;;;;2.67;1.63;;;;;;;6.96;100.00;97327.44;6110361;19;20011;-71
2024/04/02 04:22:10;;;;;;;1.80;1.70;;;;;;;7.01;100.00;97327.06;6110706;19;20010;-71
2024/04/02 04:24:10;;;;;;;2.35;1.42;;;;;;;7.00;100.00;97343.94;6110913;19;20010;-71
2024/04/02 04:26:11;;;;;;;2.97;1.60;;;;;;;6.95;100.00;97345.13;6110684;19;20402;-71
2024/04/02 04:28:11;;;;;;;2.85;1.60;;;;;;;6.94;100.00;97346.25;6109264;19;20030;-71
2024/04/02 04:30:11;;;;;;;4.93;1.90;;;;;;;6.92;100.00;97339.56;6111747;19;20045;-71
2024/04/02 04:32:12;;;;;;;3.72;1.73;;;;;;;6.94;100.00;97349.00;6108927;19;20487;-71
2024/04/02 04:34:13;;;;;;;2.05;1.40;;;;;;;6.98;100.00;97354.56;6110381;19;20341;-71
2024/04/02 04:36:13;;;;;;;2.03;1.60;;;;;;;7.00;100.00;97349.44;6110108;19;20006;-70
2024/04/02 04:38:15;;;;;;;2.00;1.60;;;;;;;6.99;100.00;97339.63;6109774;19;20763;-70
2024/04/02 04:40:15;;;;;;;1.73;1.42;;;;;;;7.03;100.00;97337.69;6110713;19;20491;-70
2024/04/02 04:42:15;;;;;;;2.63;1.50;;;;;;;7.04;100.00;97329.06;6111098;19;19999;-71
2024/04/02 04:44:15;;;;;;;5.10;1.70;;;;;;;7.07;100.00;97334.97;6108982;19;20328;-71
2024/04/02 04:46:17;;;;;;;3.35;1.75;;;;;;;7.09;100.00;97335.38;6109250;19;19995;-71
2024/04/02 04:48:18;;;;;;;3.10;1.55;;;;;;;7.07;100.00;97337.72;6108288;19;20466;-71
2024/04/02 04:50:18;;;;;;;4.15;1.80;;;;;;;7.10;100.00;97350.69;6110435;19;20030;-70
2024/04/02 04:52:19;;;;;;;2.78;1.50;;;;;;;7.11;100.00;97347.56;6109422;19;20455;-70
2024/04/02 04:54:19;;;;;;;1.45;1.30;;;;;;;7.15;100.00;97345.63;6109850;19;20010;-70
2024/04/02 04:56:19;;;;;;;2.35;1.50;;;;;;;7.17;100.00;97350.75;6110894;19;20007;-70
2024/04/02 04:58:19;;;;;;;3.10;1.63;;;;;;;7.16;100.00;97352.72;6107154;19;19998;-70
2024/04/02 05:00:20;;;;;;;2.05;1.40;;;;;;;7.11;100.00;97353.06;6111273;19;20344;-70
2024/04/02 05:02:20;;;;;;;4.28;1.80;;;;;;;7.14;100.00;97357.81;6110894;19;20033;-70
2024/04/02 05:04:20;;;;;;;3.28;2.00;;;;;;;7.18;100.00;97364.13;6110912;19;20026;-70
2024/04/02 05:06:21;;;;;;;2.72;2.00;;;;;;;7.26;100.00;97364.97;6111791;19;20350;-70
2024/04/02 05:08:25;;;;;;;3.08;1.83;;;;;;;7.29;100.00;97373.25;6109655;19;20034;-70
2024/04/02 05:10:26;;;;;;;2.17;1.60;;;;;;;7.29;100.00;97372.47;6110539;19;20013;-70
2024/04/02 05:12:26;;;;;;;5.18;2.42;;;;;;;7.27;100.00;97377.53;6112051;19;20006;-70
2024/04/02 05:14:26;;;;;;;1.52;1.42;;;;;;;7.27;100.00;97380.28;6110268;19;20014;-70
2024/04/02 05:16:27;;;;;;;4.63;2.10;;;;;;;7.29;100.00;97380.72;6110487;19;20006;-70
2024/04/02 05:18:27;;;;;;;4.72;2.08;;;;;;;7.32;100.00;97383.47;6109578;19;20007;-71
2024/04/02 05:20:28;;;;;;;2.35;1.73;;;;;;;7.36;100.00;97385.44;6108965;19;20009;-70
2024/04/02 05:22:28;;;;;;;4.30;1.77;;;;;;;7.36;100.00;97379.94;6108347;19;20006;-70
2024/04/02 05:24:29;;;;;;;1.80;1.40;;;;;;;7.35;100.00;97390.16;6110302;19;20013;-70
2024/04/02 05:26:29;;;;;;;2.92;1.58;;;;;;;7.32;100.00;97388.97;6111088;19;20011;-70
2024/04/02 05:28:30;;;;;;;3.13;2.10;;;;;;;7.31;100.00;97395.66;6109101;19;20013;-70
2024/04/02 05:30:30;;;;;;;3.53;2.00;;;;;;;7.38;100.00;97413.41;6110031;19;20023;-70
2024/04/02 05:32:30;;;;;;;4.90;1.80;;;;;;;7.38;100.00;97408.69;6109770;19;20102;-70
2024/04/02 05:34:31;;;;;;;2.25;1.70;;;;;;;7.38;100.00;97411.44;6109994;19;20386;-71
2024/04/02 05:36:31;;;;;;;3.28;1.50;;;;;;;7.44;100.00;97420.09;6108745;19;20011;-71
2024/04/02 05:38:31;;;;;;;5.65;2.05;;;;;;;7.48;100.00;97416.22;6107643;19;20479;-71
2024/04/02 05:40:32;;;;;;;2.38;1.83;;;;;;;7.47;100.00;97425.66;6110150;19;20020;-71
2024/04/02 05:42:35;;;;;;;2.47;1.67;;;;;;;7.46;100.00;97426.03;6109615;19;20023;-70
2024/04/02 05:44:36;;;;;;;1.70;1.50;;;;;;;7.48;100.00;97434.69;6110711;19;20010;-70
2024/04/02 05:46:36;;;;;;;4.57;1.60;;;;;;;7.47;100.00;97433.13;6109462;19;20321;-70
2024/04/02 05:48:36;;;;;;;3.60;1.60;;;;;;;7.47;100.00;97435.88;6110366;19;20011;-70
2024/04/02 05:50:37;;;;;;;3.20;1.70;;;;;;;7.47;100.00;97442.16;6109848;19;20059;-70
2024/04/02 05:52:37;;;;;;;3.90;1.67;;;;;;;7.49;100.00;97439.03;6111785;19;20489;-70
2024/04/02 05:54:38;;;;;;;3.13;1.80;;;;;;;7.51;100.00;97442.19;6109490;19;20454;-70
2024/04/02 05:56:38;;;;;;;4.07;2.00;;;;;;;7.52;100.00;97444.53;6109771;19;20007;-70
2024/04/02 05:58:38;;;;;;;2.88;2.20;;;;;;;7.55;100.00;97445.75;6109985;19;20010;-70
2024/04/02 06:00:39;;;;;;;2.70;1.42;;;;;;;7.56;100.00;97444.56;6109543;19;20328;-70
2024/04/02 06:02:41;;;;;;;3.88;1.67;;;;;;;7.51;100.00;97448.47;6108153;19;21387;-70
2024/04/02 06:04:41;;;;;;;;;;;;;;;7.52;100.00;97454.75;6111396;19;20451;-70
2024/04/02 06:06:42;;;;;;;2.40;1.73;;;;;;;7.50;100.00;97443.34;6109203;19;19939;-70
2024/04/02 06:08:42;;;;;;;2.72;1.60;;;;;;;7.50;100.00;97454.34;6108534;19;20033;-70
2024/04/02 06:10:42;;;;;;;3.38;1.90;;;;;;;7.51;100.00;97456.72;6104229;19;20751;-70
2024/04/02 06:12:45;;;;;;;2.25;1.58;;;;;;;7.54;100.00;97455.97;6109613;19;20069;-70
2024/04/02 06:14:45;;;;;;;2.88;1.75;;;;;;;7.58;100.00;97456.00;6107445;19;20017;-70
2024/04/02 06:16:46;;;;;;;3.88;1.70;;;;;;;7.64;100.00;97468.22;6108450;19;20340;-70
2024/04/02 06:18:46;;;;;;;3.80;1.40;;;;;;;7.66;100.00;97465.88;6108711;19;20017;-70
2024/04/02 06:20:56;;;;;;;2.33;1.30;;;;;;;7.68;100.00;97465.50;6109715;19;20014;-70
2024/04/02 06:22:56;;;;;;;5.10;1.92;;;;;;;7.66;100.00;97459.59;6110370;19;20349;-70
2024/04/02 06:24:57;;;;;;;3.13;1.40;;;;;;;7.66;100.00;97465.88;6109349;19;20018;-70
2024/04/02 06:26:57;;;;;;;1.52;1.27;;;;;;;7.66;100.00;97465.88;6108812;19;20010;-70
2024/04/02 06:28:57;;;;;;;2.45;1.50;;;;;;;7.65;100.00;97461.53;6107483;19;20026;-70
2024/04/02 06:30:58;;;;;;;1.45;1.20;;;;;;;7.62;100.00;97462.31;6107577;19;20011;-70
2024/04/02 06:32:58;;;;;;;2.42;1.05;;;;;;;7.64;100.00;97459.97;6109119;19;20007;-70
2024/04/02 06:34:58;;;;;;;2.35;1.20;;;;;;;7.65;100.00;97463.50;6106927;19;20007;-70
2024/04/02 06:36:59;;;;;;;1.80;1.15;;;;;;;7.64;100.00;97462.72;6108631;19;20313;-70
2024/04/02 06:38:59;;;;;;;2.38;1.15;;;;;;;7.70;100.00;97476.94;6105910;19;20019;-70
2024/04/02 06:40:59;;;;;;;4.50;1.38;;;;;;;7.69;100.00;97465.09;6106455;19;20359;-70
2024/04/02 06:43:00;;;;;;;2.47;1.35;;;;;;;7.71;100.00;97464.75;6106417;19;20594;-70
2024/04/02 06:45:00;;;;;;;2.15;1.35;;;;;;;7.70;100.00;97465.91;6105991;19;20007;-70
2024/04/02 06:47:00;;;;;;;2.22;1.33;;;;;;;7.74;100.00;97472.22;6105932;19;20010;-70
2024/04/02 06:49:00;;;;;;;2.30;1.17;;;;;;;7.75;100.00;97468.28;6106097;19;20007;-70
2024/04/02 06:51:04;;;;;;;2.50;1.40;;;;;;;7.75;100.00;97480.09;6105713;19;20019;-70
2024/04/02 06:53:05;;;;;;;3.08;1.50;;;;;;;7.76;100.00;97475.38;6106426;19;20493;-70
2024/04/02 06:55:05;;;;;;;2.92;1.48;;;;;;;7.81;100.00;97473.06;6109476;19;20010;-70
2024/04/02 06:57:08;;;;;;;3.20;1.55;;;;;;;7.88;100.00;97478.63;6108742;19;20010;-70
2024/04/02 06:59:08;;;;;;;1.45;1.10;;;;;;;7.95;100.00;97485.34;6107543;19;20466;-71
2024/04/02 07:01:08;;;;;;;1.50;1.00;;;;;;;7.98;100.00;97490.06;6108499;19;20006;-71
2024/04/02 07:03:09;;;;;;;1.52;1.25;;;;;;;7.98;100.00;97495.59;6108676;19;20070;-71
2024/04/02 07:05:09;;;;;;;2.88;1.40;;;;;;;8.04;100.00;97492.09;6108855;19;20536;-71
2024/04/02 07:07:09;;;;;;;1.65;1.30;;;;;;;8.02;100.00;97499.13;6107593;19;20019;-70
2024/04/02 07:09:10;;;;;;;3.03;1.63;;;;;;;8.04;100.00;97503.09;6106881;19;20020;-70
2024/04/02 07:11:10;;;;;;;1.42;1.08;;;;;;;8.03;100.00;97500.75;6109729;19;20455;-70
2024/04/02 07:13:14;;;;;;;3.65;1.63;;;;;;;8.04;100.00;97500.34;6108819;19;20010;-70
2024/04/02 07:15:15;;;;;;;2.08;1.20;;;;;;;8.05;100.00;97501.13;6105871;19;20019;-70
2024/04/02 07:17:15;;;;;;;3.97;1.10;;;;;;;8.08;100.00;97503.91;6096273;19;20321;-70
2024/04/02 07:19:15;;;;;;;3.05;1.27;;;;;;;8.12;100.00;97504.72;6107424;19;20014;-70
2024/04/02 07:21:16;;;;;;;2.72;1.13;;;;;;;8.20;100.00;97504.78;6107595;19;20375;-70
2024/04/02 07:23:16;;;;;;;3.33;1.10;;;;;;;8.31;100.00;97503.63;6107834;19;20020;-70
2024/04/02 07:25:17;;;;;;;2.33;1.30;;;;;;;8.33;100.00;97501.28;6108273;19;20007;-70
2024/04/02 07:27:17;;;;;;;1.13;1.00;;;;;;;8.36;100.00;97508.03;6106673;19;20547;-70
2024/04/02 07:29:17;;;;;;;1.90;1.20;;;;;;;8.46;100.00;97512.00;6106616;19;20581;-70
2024/04/02 07:31:18;;;;;;;1.48;1.08;;;;;;;8.54;100.00;97510.88;6107647;19;20677;-70
2024/04/02 07:33:18;;;;;;;2.33;1.30;;;;;;;8.64;100.00;97510.88;6107329;19;20458;-70
2024/04/02 07:35:18;;;;;;;1.17;1.08;;;;;;;8.75;100.00;97502.66;6105844;19;20020;-70
2024/04/02 07:37:19;;;;;;;2.95;1.45;;;;;;;8.76;100.00;97504.22;6106974;19;20044;-70
2024/04/02 07:39:19;;;;;;;3.10;1.17;;;;;;;8.84;100.00;97499.50;6106875;19;20003;-70
2024/04/02 07:41:19;;;;;;;1.30;1.10;;;;;;;8.90;100.00;97506.25;6107355;19;20022;-70
2024/04/02 07:43:20;;;;;;;1.55;1.00;;;;;;;9.02;100.00;97503.13;6106728;19;20093;-70
2024/04/02 07:45:20;;;;;;;3.47;1.65;;;;;;;8.98;100.00;97499.56;6106982;19;20014;-70
2024/04/02 07:47:21;;;;;;;2.40;1.10;;;;;;;9.00;100.00;97513.75;6107255;19;20006;-70
2024/04/02 07:49:21;;;;;;;2.08;1.00;;;;;;;9.05;100.00;97502.34;6106640;19;20038;-71
2024/04/02 07:51:21;;;;;;;2.08;1.20;;;;;;;9.04;100.00;97505.50;6107143;19;20256;-71
2024/04/02 07:53:23;;;;;;;2.95;1.23;;;;;;;9.11;100.00;97511.81;6107387;19;20011;-71
2024/04/02 07:55:24;;;;;;;1.73;1.00;;;;;;;9.08;100.00;97509.03;6107625;19;20436;-71
2024/04/02 07:57:24;;;;;;;2.53;1.60;;;;;;;9.12;100.00;97518.13;6105848;19;20014;-71
2024/04/02 07:59:25;;;;;;;4.13;1.80;;;;;;;9.10;100.00;97518.53;6106871;19;20321;-71
2024/04/02 08:01:25;;;;;;;5.35;1.38;;;;;;;9.12;100.00;97529.16;6106800;19;20014;-71
2024/04/02 08:03:25;;;;;;;3.05;1.50;;;;;;;9.09;100.00;97529.91;6104473;19;20590;-71
2024/04/02 08:05:25;;;;;;;3.58;1.80;;;;;;;9.08;100.00;97526.38;6107815;19;20010;-71
2024/04/02 08:07:27;;;;;;;2.95;1.60;;;;;;;9.11;100.00;97533.09;6105932;19;20006;-71
2024/04/02 08:09:27;;;;;;;1.55;1.40;;;;;;;9.12;100.00;97534.69;6106297;19;19998;-71
2024/04/02 08:11:28;;;;;;;2.22;1.70;;;;;;;9.12;100.00;97531.91;6106841;19;20306;-71
2024/04/02 08:13:28;;;;;;;2.63;1.30;;;;;;;9.11;100.00;97533.09;6105803;19;20007;-71
2024/04/02 08:15:28;;;;;;;2.35;1.27;;;;;;;9.16;100.00;97540.97;6106174;19;20023;-71
2024/04/02 08:17:29;;;;;;;1.20;1.10;;;;;;;9.25;100.00;97539.41;6098534;19;20007;-71
2024/04/02 08:19:30;;;;;;;2.47;1.30;;;;;;;9.28;100.00;97533.13;6097714;19;20006;-71
2024/04/02 08:21:30;;;;;;;3.38;1.90;;;;;;;9.27;100.00;97539.84;6097827;19;19999;-71
2024/04/02 08:23:30;;;;;;;4.15;1.88;;;;;;;9.29;100.00;97540.22;6097952;19;20074;-71
2024/04/02 08:25:31;;;;;;;1.20;1.10;;;;;;;9.31;100.00;97547.31;6100148;19;20002;-71
2024/04/02 08:27:31;;;;;;;1.95;1.23;;;;;;;9.35;100.00;97542.56;6101892;19;20047;-71
2024/04/02 08:29:31;;;;;;;2.17;1.10;;;;;;;9.23;100.00;97547.31;6104246;19;20006;-71
2024/04/02 08:31:32;;;;;;;2.65;1.40;;;;;;;9.20;100.00;97533.50;6104180;19;20006;-71
2024/04/02 08:33:33;;;;;;;2.88;1.30;;;;;;;9.17;100.00;97542.56;6103426;19;20005;-71
2024/04/02 08:35:33;;;;;;;1.73;0.90;;;;;;;9.19;100.00;97548.50;6103384;19;20010;-71
2024/04/02 08:37:34;;;;;;;2.33;1.10;;;;;;;9.18;100.00;97552.41;6102075;19;20345;-71
2024/04/02 08:39:34;;;;;;;1.33;1.00;;;;;;;9.14;100.00;97554.38;6103637;19;20051;-71
2024/04/02 08:41:38;;;;;;;1.13;1.02;;;;;;;9.16;100.00;97552.81;6102594;19;20579;-71
2024/04/02 08:43:43;;;;;;;1.38;1.20;;;;;;;9.22;100.00;97544.94;6103389;19;20006;-71
2024/04/02 08:45:44;;;;;;;2.15;1.05;;;;;;;9.24;100.00;97548.88;6103292;19;20023;-71
2024/04/02 08:47:45;;;;;;;1.53;1.23;;;;;;;9.27;100.00;97556.41;6102140;19;20033;-71
2024/04/02 08:49:46;;;;;;;2.63;1.33;;;;;;;9.24;100.00;97562.69;6102852;19;20010;-71
2024/04/02 08:51:48;;;;;;;1.85;1.48;;;;;;;9.19;100.00;97562.28;6103631;19;20018;-71
2024/04/02 08:53:49;;;;;;;2.22;1.50;;;;;;;9.35;100.00;97557.19;6102808;19;20011;-71
2024/04/02 08:55:49;;;;;;;3.83;2.63;;;;;;;9.44;100.00;97568.66;6100990;19;20022;-70
2024/04/02 08:57:52;;;;;;;3.53;1.50;;;;;;;9.45;100.00;97558.38;6101486;19;20007;-71
2024/04/02 08:59:53;;;;;;;6.57;1.63;;;;;;;9.53;100.00;97558.00;6102657;19;20535;-71
2024/04/02 09:01:57;;;;;;;1.10;1.00;;;;;;;9.55;100.00;97563.13;6102987;19;20010;-71
2024/04/02 09:04:01;;;;;;;3.08;1.17;;;;;;;9.59;100.00;97569.44;6102795;19;20006;-71
2024/04/02 09:06:05;;;;;;;1.42;1.00;;;;;;;9.55;100.00;97561.16;6102459;19;20022;-71
2024/04/02 09:08:06;;;;;;;1.73;1.60;;;;;;;9.59;100.00;97577.72;6101349;19;20321;-71
2024/04/02 09:10:06;;;;;;;0.93;0.93;;;;;;;9.63;100.00;97570.22;6101348;19;20045;-71
2024/04/02 09:12:07;;;;;;;1.20;1.10;;;;;;;9.87;100.00;97584.47;6102742;19;20011;-71
2024/04/02 09:14:08;;;;;;;3.20;1.20;;;;;;;9.96;100.00;97579.31;6102688;19;20062;-71
2024/04/02 09:16:10;;;;;;;1.05;0.95;;;;;;;9.95;100.00;97583.28;6103336;19;20010;-71
2024/04/02 09:18:10;;;;;;;2.47;1.10;;;;;;;9.93;100.00;97594.72;6110528;19;20014;-71
2024/04/02 09:20:11;;;;;;;1.05;0.93;;;;;;;9.83;100.00;97567.84;6111742;19;20413;-71
2024/04/02 09:22:11;;;;;;;3.13;1.20;;;;;;;9.84;100.00;97588.78;6108997;19;20707;-71
2024/04/02 09:24:12;;;;;;;3.22;1.20;;;;;;;9.96;100.00;97579.31;6111787;19;20070;-71
2024/04/02 09:26:13;;;;;;;2.10;1.55;;;;;;;10.07;100.00;97580.88;6110150;19;20010;-71
2024/04/02 09:28:13;;;;;;;2.53;1.52;;;;;;;10.16;100.00;97586.00;6110351;19;20479;-71